sensor_id;sensor_type;location;lat;lon;timestamp;pressure;altitude;pressure_sealevel;temperature;humidity
73267;BME280;61495;53.400;7.608;2022-10-26T00:01:10;101537.63;;;10.36;85.10
73267;BME280;61495;53.400;7.608;2022-10-26T00:03:38;101510.97;;;10.13;84.79
73267;BME280;61495;53.400;7.608;2022-10-26T00:06:18;101578.16;;;10.47;85.08
73267;BME280;61495;53.400;7.608;2022-10-26T00:08:58;101520.75;;;10.06;84.96
73267;BME280;61495;53.400;7.608;2022-10-26T00:11:23;101517.41;;;10.04;84.90
73267;BME280;61495;53.400;7.608;2022-10-26T00:13:49;101558.13;;;10.29;85.31
73267;BME280;61495;53.400;7.608;2022-10-26T00:16:25;101506.56;;;9.91;85.27
73267;BME280;61495;53.400;7.608;2022-10-26T00:18:51;101531.84;;;10.03;84.33
73267;BME280;61495;53.400;7.608;2022-10-26T00:21:20;101521.94;;;9.89;85.38
73267;BME280;61495;53.400;7.608;2022-10-26T00:23:45;101558.22;;;10.06;85.63
73267;BME280;61495;53.400;7.608;2022-10-26T00:26:13;101574.94;;;10.23;85.17
73267;BME280;61495;53.400;7.608;2022-10-26T00:28:38;101525.34;;;9.83;85.43
73267;BME280;61495;53.400;7.608;2022-10-26T00:31:11;101548.63;;;9.97;86.02
73267;BME280;61495;53.400;7.608;2022-10-26T00:33:37;101551.00;;;9.92;85.89
73267;BME280;61495;53.400;7.608;2022-10-26T00:36:03;101545.03;;;9.90;86.08
73267;BME280;61495;53.400;7.608;2022-10-26T00:38:28;101502.84;;;9.63;86.32
73267;BME280;61495;53.400;7.608;2022-10-26T00:40:54;101490.50;;;9.62;86.83
73267;BME280;61495;53.400;7.608;2022-10-26T00:45:51;101517.06;;;9.78;86.06
73267;BME280;61495;53.400;7.608;2022-10-26T00:48:23;101472.41;;;9.49;86.75
73267;BME280;61495;53.400;7.608;2022-10-26T00:50:53;101485.06;;;9.55;85.98
73267;BME280;61495;53.400;7.608;2022-10-26T00:53:20;101518.09;;;9.77;86.43
73267;BME280;61495;53.400;7.608;2022-10-26T00:55:48;101540.03;;;9.87;86.28
73267;BME280;61495;53.400;7.608;2022-10-26T00:58:15;101483.59;;;9.53;86.99
73267;BME280;61495;53.400;7.608;2022-10-26T01:00:43;101562.66;;;9.99;86.56
73267;BME280;61495;53.400;7.608;2022-10-26T01:03:17;101516.44;;;9.61;87.08
73267;BME280;61495;53.400;7.608;2022-10-26T01:05:45;101538.09;;;9.81;86.66
73267;BME280;61495;53.400;7.608;2022-10-26T01:08:12;101566.28;;;9.91;86.65
73267;BME280;61495;53.400;7.608;2022-10-26T01:10:39;101542.19;;;9.77;86.41
73267;BME280;61495;53.400;7.608;2022-10-26T01:13:06;101556.38;;;9.92;86.04
73267;BME280;61495;53.400;7.608;2022-10-26T01:27:23;101550.63;;;9.95;86.64
73267;BME280;61495;53.400;7.608;2022-10-26T01:30:17;101552.50;;;9.94;87.04
73267;BME280;61495;53.400;7.608;2022-10-26T01:35:37;101542.09;;;9.85;87.00
73267;BME280;61495;53.400;7.608;2022-10-26T01:44:01;101521.16;;;9.74;87.28
73267;BME280;61495;53.400;7.608;2022-10-26T01:46:33;101540.69;;;9.89;86.75
73267;BME280;61495;53.400;7.608;2022-10-26T01:49:05;101492.97;;;9.63;87.05
73267;BME280;61495;53.400;7.608;2022-10-26T01:51:33;101453.97;;;9.39;86.56
73267;BME280;61495;53.400;7.608;2022-10-26T01:54:04;101481.56;;;9.55;87.43
73267;BME280;61495;53.400;7.608;2022-10-26T01:56:34;101498.81;;;9.67;86.86
73267;BME280;61495;53.400;7.608;2022-10-26T02:02:10;101526.19;;;9.83;87.21
73267;BME280;61495;53.400;7.608;2022-10-26T02:16:24;101523.25;;;9.78;87.19
73267;BME280;61495;53.400;7.608;2022-10-26T02:19:16;101524.44;;;9.76;87.01
73267;BME280;61495;53.400;7.608;2022-10-26T02:21:48;101487.91;;;9.54;86.42
73267;BME280;61495;53.400;7.608;2022-10-26T02:24:19;101453.03;;;9.32;87.25
73267;BME280;61495;53.400;7.608;2022-10-26T02:26:47;101432.94;;;9.22;86.71
73267;BME280;61495;53.400;7.608;2022-10-26T02:29:17;101498.16;;;9.65;87.30
73267;BME280;61495;53.400;7.608;2022-10-26T02:31:45;101502.13;;;9.69;87.23
73267;BME280;61495;53.400;7.608;2022-10-26T02:34:18;101445.22;;;9.31;86.93
73267;BME280;61495;53.400;7.608;2022-10-26T02:36:47;101399.53;;;9.03;87.36
73267;BME280;61495;53.400;7.608;2022-10-26T02:39:17;101415.53;;;9.11;87.15
73267;BME280;61495;53.400;7.608;2022-10-26T02:41:44;101455.53;;;9.34;87.38
73267;BME280;61495;53.400;7.608;2022-10-26T02:44:26;101495.66;;;9.63;87.38
73267;BME280;61495;53.400;7.608;2022-10-26T02:46:54;101503.69;;;9.63;87.47
73267;BME280;61495;53.400;7.608;2022-10-26T02:49:20;101408.66;;;9.09;87.01
73267;BME280;61495;53.400;7.608;2022-10-26T02:57:17;101421.97;;;9.17;87.10
73267;BME280;61495;53.400;7.608;2022-10-26T02:59:44;101407.41;;;9.05;86.93
73267;BME280;61495;53.400;7.608;2022-10-26T03:02:13;101431.09;;;9.22;87.39
73267;BME280;61495;53.400;7.608;2022-10-26T03:04:43;101450.00;;;9.35;86.94
73267;BME280;61495;53.400;7.608;2022-10-26T03:07:10;101418.00;;;9.13;87.16
73267;BME280;61495;53.400;7.608;2022-10-26T03:09:36;101394.19;;;9.03;87.15
73267;BME280;61495;53.400;7.608;2022-10-26T03:12:04;101392.09;;;8.99;86.82
73267;BME280;61495;53.400;7.608;2022-10-26T03:14:30;101411.44;;;9.01;87.12
73267;BME280;61495;53.400;7.608;2022-10-26T03:16:55;101470.38;;;9.36;86.96
73267;BME280;61495;53.400;7.608;2022-10-26T03:19:21;101409.44;;;9.03;87.15
73267;BME280;61495;53.400;7.608;2022-10-26T03:21:46;101430.25;;;9.07;87.77
73267;BME280;61495;53.400;7.608;2022-10-26T03:24:12;101470.47;;;9.43;87.03
73267;BME280;61495;53.400;7.608;2022-10-26T03:26:37;101391.63;;;8.95;87.46
73267;BME280;61495;53.400;7.608;2022-10-26T03:29:03;101410.69;;;9.07;87.18
73267;BME280;61495;53.400;7.608;2022-10-26T03:31:29;101468.72;;;9.35;87.72
73267;BME280;61495;53.400;7.608;2022-10-26T03:33:56;101436.53;;;9.14;87.39
73267;BME280;61495;53.400;7.608;2022-10-26T03:36:22;101427.31;;;9.02;87.85
73267;BME280;61495;53.400;7.608;2022-10-26T03:38:50;101388.66;;;8.90;87.21
73267;BME280;61495;53.400;7.608;2022-10-26T03:41:18;101398.16;;;8.92;87.31
73267;BME280;61495;53.400;7.608;2022-10-26T03:43:49;101482.00;;;9.43;87.49
73267;BME280;61495;53.400;7.608;2022-10-26T03:46:14;101444.56;;;9.14;87.29
73267;BME280;61495;53.400;7.608;2022-10-26T03:48:42;101408.50;;;8.96;87.98
73267;BME280;61495;53.400;7.608;2022-10-26T03:51:10;101420.94;;;9.03;87.50
73267;BME280;61495;53.400;7.608;2022-10-26T03:53:35;101429.97;;;9.02;87.03
73267;BME280;61495;53.400;7.608;2022-10-26T03:56:01;101451.53;;;9.15;87.13
73267;BME280;61495;53.400;7.608;2022-10-26T03:58:26;101389.09;;;8.79;87.31
73267;BME280;61495;53.400;7.608;2022-10-26T04:00:52;101464.38;;;9.20;87.02
73267;BME280;61495;53.400;7.608;2022-10-26T04:03:20;101482.63;;;9.31;87.38
73267;BME280;61495;53.400;7.608;2022-10-26T04:05:47;101455.69;;;9.18;87.29
73267;BME280;61495;53.400;7.608;2022-10-26T04:08:15;101403.28;;;8.79;87.15
73267;BME280;61495;53.400;7.608;2022-10-26T04:10:41;101397.31;;;8.77;86.94
73267;BME280;61495;53.400;7.608;2022-10-26T04:13:08;101436.41;;;8.93;86.84
73267;BME280;61495;53.400;7.608;2022-10-26T04:15:34;101385.41;;;8.65;87.35
73267;BME280;61495;53.400;7.608;2022-10-26T04:18:03;101387.91;;;8.67;86.96
73267;BME280;61495;53.400;7.608;2022-10-26T04:20:30;101401.53;;;8.72;86.57
73267;BME280;61495;53.400;7.608;2022-10-26T04:23:02;101446.06;;;8.94;87.07
73267;BME280;61495;53.400;7.608;2022-10-26T04:25:29;101418.41;;;8.72;86.92
73267;BME280;61495;53.400;7.608;2022-10-26T04:27:57;101457.44;;;8.96;86.66
73267;BME280;61495;53.400;7.608;2022-10-26T04:30:25;101379.38;;;8.49;87.09
73267;BME280;61495;53.400;7.608;2022-10-26T04:32:51;101436.19;;;8.80;87.08
73267;BME280;61495;53.400;7.608;2022-10-26T04:35:16;101422.91;;;8.72;87.01
73267;BME280;61495;53.400;7.608;2022-10-26T04:37:42;101388.50;;;8.54;87.00
73267;BME280;61495;53.400;7.608;2022-10-26T04:40:08;101447.16;;;8.85;87.16
73267;BME280;61495;53.400;7.608;2022-10-26T04:42:46;101479.72;;;9.03;87.40
73267;BME280;61495;53.400;7.608;2022-10-26T04:45:13;101436.06;;;8.73;87.29
73267;BME280;61495;53.400;7.608;2022-10-26T04:47:42;101385.25;;;8.44;87.58
73267;BME280;61495;53.400;7.608;2022-10-26T04:50:09;101422.78;;;8.65;87.39
73267;BME280;61495;53.400;7.608;2022-10-26T04:52:36;101412.00;;;8.59;87.52
73267;BME280;61495;53.400;7.608;2022-10-26T04:55:02;101411.34;;;8.57;87.51
73267;BME280;61495;53.400;7.608;2022-10-26T04:57:31;101370.50;;;8.33;86.86
73267;BME280;61495;53.400;7.608;2022-10-26T05:00:15;101399.13;;;8.40;87.60
73267;BME280;61495;53.400;7.608;2022-10-26T05:02:43;101452.09;;;8.73;87.03
73267;BME280;61495;53.400;7.608;2022-10-26T05:05:08;101423.97;;;8.63;86.94
73267;BME280;61495;53.400;7.608;2022-10-26T05:07:34;101415.72;;;8.50;87.31
73267;BME280;61495;53.400;7.608;2022-10-26T05:09:59;101439.28;;;8.69;87.43
73267;BME280;61495;53.400;7.608;2022-10-26T05:12:25;101399.66;;;8.35;87.65
73267;BME280;61495;53.400;7.608;2022-10-26T05:14:51;101397.66;;;8.37;87.15
73267;BME280;61495;53.400;7.608;2022-10-26T05:17:20;101430.31;;;8.62;87.38
73267;BME280;61495;53.400;7.608;2022-10-26T05:19:45;101414.72;;;8.51;87.51
73267;BME280;61495;53.400;7.608;2022-10-26T05:22:16;101451.72;;;8.76;87.72
73267;BME280;61495;53.400;7.608;2022-10-26T05:24:42;101431.72;;;8.58;87.43
73267;BME280;61495;53.400;7.608;2022-10-26T05:27:07;101451.66;;;8.70;87.93
73267;BME280;61495;53.400;7.608;2022-10-26T05:29:33;101360.25;;;8.14;87.61
73267;BME280;61495;53.400;7.608;2022-10-26T05:31:58;101451.66;;;8.70;87.68
73267;BME280;61495;53.400;7.608;2022-10-26T05:34:24;101408.00;;;8.40;87.84
73267;BME280;61495;53.400;7.608;2022-10-26T05:36:52;101378.06;;;8.22;87.80
73267;BME280;61495;53.400;7.608;2022-10-26T05:39:21;101394.91;;;8.22;87.37
73267;BME280;61495;53.400;7.608;2022-10-26T05:41:46;101386.28;;;8.12;87.20
73267;BME280;61495;53.400;7.608;2022-10-26T05:44:12;101372.47;;;8.09;87.36
73267;BME280;61495;53.400;7.608;2022-10-26T05:46:37;101389.31;;;8.09;88.03
73267;BME280;61495;53.400;7.608;2022-10-26T05:49:03;101414.56;;;8.29;87.03
73267;BME280;61495;53.400;7.608;2022-10-26T05:51:28;101422.56;;;8.29;87.73
73267;BME280;61495;53.400;7.608;2022-10-26T05:53:54;101443.22;;;8.35;87.84
73267;BME280;61495;53.400;7.608;2022-10-26T05:58:58;101424.91;;;8.24;87.70
73267;BME280;61495;53.400;7.608;2022-10-26T06:04:50;101484.28;;;8.57;88.36
73267;BME280;61495;53.400;7.608;2022-10-26T06:07:18;101442.91;;;8.30;87.90
73267;BME280;61495;53.400;7.608;2022-10-26T06:09:45;101479.09;;;8.56;88.33
73267;BME280;61495;53.400;7.608;2022-10-26T06:12:12;101470.53;;;8.46;88.36
73267;BME280;61495;53.400;7.608;2022-10-26T06:14:38;101453.88;;;8.35;87.87
73267;BME280;61495;53.400;7.608;2022-10-26T06:23:08;101489.16;;;8.54;87.92
73267;BME280;61495;53.400;7.608;2022-10-26T06:31:05;101484.16;;;8.51;88.35
73267;BME280;61495;53.400;7.608;2022-10-26T06:33:31;101494.50;;;8.54;88.85
73267;BME280;61495;53.400;7.608;2022-10-26T06:38:33;101442.47;;;8.19;88.38
73267;BME280;61495;53.400;7.608;2022-10-26T06:41:00;101420.00;;;8.05;87.85
73267;BME280;61495;53.400;7.608;2022-10-26T06:43:28;101449.09;;;8.23;88.64
73267;BME280;61495;53.400;7.608;2022-10-26T06:46:12;101506.13;;;8.61;88.79
73267;BME280;61495;53.400;7.608;2022-10-26T06:52:07;101449.25;;;8.29;88.68
73267;BME280;61495;53.400;7.608;2022-10-26T06:57:10;101499.72;;;8.70;89.32
73267;BME280;61495;53.400;7.608;2022-10-26T06:59:59;101499.38;;;8.73;89.74
73267;BME280;61495;53.400;7.608;2022-10-26T07:02:27;101410.91;;;8.22;89.51
73267;BME280;61495;53.400;7.608;2022-10-26T07:05:00;101391.44;;;8.14;89.69
73267;BME280;61495;53.400;7.608;2022-10-26T07:07:28;101393.75;;;8.17;89.12
73267;BME280;61495;53.400;7.608;2022-10-26T07:09:55;101437.56;;;8.53;88.83
73267;BME280;61495;53.400;7.608;2022-10-26T07:12:20;101461.50;;;8.69;89.89
73267;BME280;61495;53.400;7.608;2022-10-26T07:14:46;101424.34;;;8.60;89.57
73267;BME280;61495;53.400;7.608;2022-10-26T07:17:12;101383.28;;;8.38;89.54
73267;BME280;61495;53.400;7.608;2022-10-26T07:19:38;101432.28;;;8.68;89.76
73267;BME280;61495;53.400;7.608;2022-10-26T07:22:04;101402.25;;;8.66;89.50
73267;BME280;61495;53.400;7.608;2022-10-26T07:24:30;101379.38;;;8.49;89.69
73267;BME280;61495;53.400;7.608;2022-10-26T07:26:57;101405.69;;;8.74;90.31
73267;BME280;61495;53.400;7.608;2022-10-26T07:29:24;101464.44;;;9.12;89.99
73267;BME280;61495;53.400;7.608;2022-10-26T07:31:51;101432.34;;;8.97;91.38
73267;BME280;61495;53.400;7.608;2022-10-26T07:34:16;101372.59;;;8.61;89.94
73267;BME280;61495;53.400;7.608;2022-10-26T07:36:42;101477.66;;;9.28;90.40
73267;BME280;61495;53.400;7.608;2022-10-26T07:39:07;101461.50;;;9.21;90.06
73267;BME280;61495;53.400;7.608;2022-10-26T07:41:33;101436.16;;;9.03;90.24
73267;BME280;61495;53.400;7.608;2022-10-26T07:44:01;101420.56;;;9.06;89.99
73267;BME280;61495;53.400;7.608;2022-10-26T07:46:27;101440.13;;;9.21;90.12
73267;BME280;61495;53.400;7.608;2022-10-26T07:48:53;101464.28;;;9.42;90.39
73267;BME280;61495;53.400;7.608;2022-10-26T07:51:19;101457.66;;;9.38;89.91
73267;BME280;61495;53.400;7.608;2022-10-26T07:53:51;101406.75;;;9.17;90.12
73267;BME280;61495;53.400;7.608;2022-10-26T07:56:19;101378.84;;;9.05;89.78
73267;BME280;61495;53.400;7.608;2022-10-26T07:58:47;101385.75;;;9.14;89.87
73267;BME280;61495;53.400;7.608;2022-10-26T08:01:15;101392.94;;;9.14;90.34
73267;BME280;61495;53.400;7.608;2022-10-26T08:03:41;101441.22;;;9.41;89.89
73267;BME280;61495;53.400;7.608;2022-10-26T08:06:09;101383.72;;;9.16;90.62
73267;BME280;61495;53.400;7.608;2022-10-26T08:08:35;101425.75;;;9.52;90.25
73267;BME280;61495;53.400;7.608;2022-10-26T08:11:01;101377.00;;;9.20;90.76
73267;BME280;61495;53.400;7.608;2022-10-26T08:13:27;101383.06;;;9.29;92.38
73267;BME280;61495;53.400;7.608;2022-10-26T08:16:00;101393.47;;;9.38;91.72
73267;BME280;61495;53.400;7.608;2022-10-26T08:18:27;101479.78;;;9.91;90.75
73267;BME280;61495;53.400;7.608;2022-10-26T08:20:53;101448.22;;;9.72;91.34
73267;BME280;61495;53.400;7.608;2022-10-26T08:23:20;101489.75;;;9.97;91.66
73267;BME280;61495;53.400;7.608;2022-10-26T08:25:48;101478.66;;;10.00;92.33
73267;BME280;61495;53.400;7.608;2022-10-26T08:28:13;101416.78;;;9.59;91.50
73267;BME280;61495;53.400;7.608;2022-10-26T08:30:39;101476.25;;;10.05;92.06
73267;BME280;61495;53.400;7.608;2022-10-26T08:33:06;101466.75;;;10.02;91.44
73267;BME280;61495;53.400;7.608;2022-10-26T08:35:32;101492.66;;;10.31;93.30
73267;BME280;61495;53.400;7.608;2022-10-26T08:37:58;101441.19;;;10.00;91.81
73267;BME280;61495;53.400;7.608;2022-10-26T08:40:31;101480.41;;;10.43;92.19
73267;BME280;61495;53.400;7.608;2022-10-26T08:43:10;101479.28;;;10.52;92.39
73267;BME280;61495;53.400;7.608;2022-10-26T08:45:40;101457.97;;;10.44;91.45
73267;BME280;61495;53.400;7.608;2022-10-26T08:48:24;101475.91;;;10.65;91.20
73267;BME280;61495;53.400;7.608;2022-10-26T08:51:22;101405.31;;;10.30;91.32
73267;BME280;61495;53.400;7.608;2022-10-26T08:53:56;101433.88;;;10.66;91.43
73267;BME280;61495;53.400;7.608;2022-10-26T08:56:31;101442.66;;;10.81;91.44
73267;BME280;61495;53.400;7.608;2022-10-26T09:01:35;101432.91;;;11.01;91.01
73267;BME280;61495;53.400;7.608;2022-10-26T09:04:02;101445.22;;;11.23;90.58
73267;BME280;61495;53.400;7.608;2022-10-26T09:06:44;101429.63;;;11.33;90.19
73267;BME280;61495;53.400;7.608;2022-10-26T09:09:17;101447.50;;;11.54;90.31
73267;BME280;61495;53.400;7.608;2022-10-26T09:14:46;101414.09;;;11.63;89.78
73267;BME280;61495;53.400;7.608;2022-10-26T09:23:44;101465.63;;;12.40;88.99
73267;BME280;61495;53.400;7.608;2022-10-26T09:26:31;101426.34;;;12.39;87.99
73267;BME280;61495;53.400;7.608;2022-10-26T09:29:02;101435.50;;;12.64;87.18
73267;BME280;61495;53.400;7.608;2022-10-26T09:31:34;101447.28;;;12.90;87.41
73267;BME280;61495;53.400;7.608;2022-10-26T09:34:04;101382.94;;;12.68;87.77
73267;BME280;61495;53.400;7.608;2022-10-26T09:36:34;101413.16;;;12.97;86.18
73267;BME280;61495;53.400;7.608;2022-10-26T09:39:11;101406.13;;;13.09;86.26
73267;BME280;61495;53.400;7.608;2022-10-26T09:41:44;101430.91;;;13.44;86.19
73267;BME280;61495;53.400;7.608;2022-10-26T09:49:52;101444.41;;;13.95;84.00
73267;BME280;61495;53.400;7.608;2022-10-26T09:52:19;101434.41;;;14.02;84.34
73267;BME280;61495;53.400;7.608;2022-10-26T09:54:45;101405.47;;;13.84;83.46
73267;BME280;61495;53.400;7.608;2022-10-26T09:57:14;101461.84;;;14.30;82.52
73267;BME280;61495;53.400;7.608;2022-10-26T09:59:42;101421.59;;;14.28;82.61
73267;BME280;61495;53.400;7.608;2022-10-26T10:02:37;101477.53;;;14.77;83.07
73267;BME280;61495;53.400;7.608;2022-10-26T10:07:49;101409.09;;;14.47;81.96
73267;BME280;61495;53.400;7.608;2022-10-26T10:10:20;101432.56;;;14.71;81.60
73267;BME280;61495;53.400;7.608;2022-10-26T10:12:47;101435.16;;;14.84;81.61
73267;BME280;61495;53.400;7.608;2022-10-26T10:15:25;101481.22;;;15.32;80.90
73267;BME280;61495;53.400;7.608;2022-10-26T10:17:52;101486.13;;;15.42;79.97
73267;BME280;61495;53.400;7.608;2022-10-26T10:20:29;101418.00;;;15.22;79.69
73267;BME280;61495;53.400;7.608;2022-10-26T10:22:59;101452.78;;;15.54;80.68
73267;BME280;61495;53.400;7.608;2022-10-26T10:25:34;101408.00;;;15.47;80.68
73267;BME280;61495;53.400;7.608;2022-10-26T10:28:01;101427.50;;;15.67;80.29
73267;BME280;61495;53.400;7.608;2022-10-26T10:30:32;101460.13;;;16.02;80.41
73267;BME280;61495;53.400;7.608;2022-10-26T10:33:10;101419.97;;;15.87;78.66
73267;BME280;61495;53.400;7.608;2022-10-26T10:35:39;101420.44;;;15.84;77.99
73267;BME280;61495;53.400;7.608;2022-10-26T10:38:20;101485.00;;;16.40;77.73
73267;BME280;61495;53.400;7.608;2022-10-26T10:40:55;101416.94;;;16.13;78.03
73267;BME280;61495;53.400;7.608;2022-10-26T10:43:22;101415.47;;;16.29;79.15
73267;BME280;61495;53.400;7.608;2022-10-26T10:45:51;101467.00;;;16.64;76.92
73267;BME280;61495;53.400;7.608;2022-10-26T10:48:22;101449.44;;;16.55;76.13
73267;BME280;61495;53.400;7.608;2022-10-26T10:51:01;101471.59;;;16.75;76.39
73267;BME280;61495;53.400;7.608;2022-10-26T10:53:36;101437.22;;;16.64;75.08
73267;BME280;61495;53.400;7.608;2022-10-26T10:56:39;101488.88;;;17.15;77.10
73267;BME280;61495;53.400;7.608;2022-10-26T11:02:05;101487.69;;;17.46;77.90
73267;BME280;61495;53.400;7.608;2022-10-26T11:05:03;101490.19;;;17.59;76.26
73267;BME280;61495;53.400;7.608;2022-10-26T11:07:41;101431.16;;;17.27;75.33
73267;BME280;61495;53.400;7.608;2022-10-26T11:10:13;101490.75;;;17.73;73.78
73267;BME280;61495;53.400;7.608;2022-10-26T11:12:48;101452.00;;;17.72;76.08
73267;BME280;61495;53.400;7.608;2022-10-26T11:15:19;101449.03;;;17.74;75.61
73267;BME280;61495;53.400;7.608;2022-10-26T11:21:30;101495.47;;;18.17;72.40
73267;BME280;61495;53.400;7.608;2022-10-26T11:26:57;101427.22;;;17.81;72.66
73267;BME280;61495;53.400;7.608;2022-10-26T11:32:09;101437.47;;;17.90;71.20
73267;BME280;61495;53.400;7.608;2022-10-26T11:37:42;101487.81;;;18.26;71.99
73267;BME280;61495;53.400;7.608;2022-10-26T11:40:21;101500.50;;;18.37;71.98
73267;BME280;61495;53.400;7.608;2022-10-26T11:43:26;101484.78;;;18.39;72.84
73267;BME280;61495;53.400;7.608;2022-10-26T11:48:50;101496.56;;;18.45;72.36
73267;BME280;61495;53.400;7.608;2022-10-26T11:51:37;101503.09;;;18.44;71.17
73267;BME280;61495;53.400;7.608;2022-10-26T11:54:19;101431.06;;;17.96;69.60
73267;BME280;61495;53.400;7.608;2022-10-26T11:56:48;101432.34;;;18.05;73.43
73267;BME280;61495;53.400;7.608;2022-10-26T11:59:19;101479.72;;;18.43;72.69
73267;BME280;61495;53.400;7.608;2022-10-26T12:01:52;101446.44;;;18.19;71.34
73267;BME280;61495;53.400;7.608;2022-10-26T12:04:22;101462.75;;;18.36;72.39
73267;BME280;61495;53.400;7.608;2022-10-26T12:06:50;101476.09;;;18.37;73.18
73267;BME280;61495;53.400;7.608;2022-10-26T12:09:22;101465.09;;;18.44;74.12
73267;BME280;61495;53.400;7.608;2022-10-26T12:12:09;101474.53;;;18.53;72.79
73267;BME280;61495;53.400;7.608;2022-10-26T12:14:42;101470.63;;;18.49;74.68
73267;BME280;61495;53.400;7.608;2022-10-26T12:19:46;101487.75;;;18.49;71.02
73267;BME280;61495;53.400;7.608;2022-10-26T12:22:16;101478.78;;;18.49;73.13
73267;BME280;61495;53.400;7.608;2022-10-26T12:27:47;101489.25;;;18.45;71.22
73267;BME280;61495;53.400;7.608;2022-10-26T12:35:38;101442.06;;;18.18;70.66
73267;BME280;61495;53.400;7.608;2022-10-26T12:40:45;101464.75;;;18.40;74.28
73267;BME280;61495;53.400;7.608;2022-10-26T12:45:41;101505.78;;;18.72;73.92
73267;BME280;61495;53.400;7.608;2022-10-26T12:48:21;101513.38;;;18.70;72.04
73267;BME280;61495;53.400;7.608;2022-10-26T12:50:49;101503.66;;;18.74;73.20
73267;BME280;61495;53.400;7.608;2022-10-26T12:53:18;101496.97;;;18.65;72.53
73267;BME280;61495;53.400;7.608;2022-10-26T12:58:51;101520.47;;;18.88;70.91
73267;BME280;61495;53.400;7.608;2022-10-26T13:01:38;101509.47;;;18.94;72.03
73267;BME280;61495;53.400;7.608;2022-10-26T13:09:36;101516.72;;;19.05;73.63
73267;BME280;61495;53.400;7.608;2022-10-26T13:12:03;101524.69;;;19.12;71.43
73267;BME280;61495;53.400;7.608;2022-10-26T13:14:37;101529.31;;;19.11;70.98
73267;BME280;61495;53.400;7.608;2022-10-26T13:17:06;101513.72;;;19.07;72.29
73267;BME280;61495;53.400;7.608;2022-10-26T13:19:48;101494.97;;;19.05;71.55
73267;BME280;61495;53.400;7.608;2022-10-26T13:22:20;101512.50;;;19.14;72.34
73267;BME280;61495;53.400;7.608;2022-10-26T13:25:14;101489.47;;;19.00;70.24
73267;BME280;61495;53.400;7.608;2022-10-26T13:27:44;101516.69;;;19.22;71.26
73267;BME280;61495;53.400;7.608;2022-10-26T13:33:01;101484.69;;;19.07;72.09
73267;BME280;61495;53.400;7.608;2022-10-26T13:35:27;101535.00;;;19.43;70.86
73267;BME280;61495;53.400;7.608;2022-10-26T13:37:55;101526.91;;;19.31;72.70
73267;BME280;61495;53.400;7.608;2022-10-26T13:40:24;101522.97;;;19.39;72.19
73267;BME280;61495;53.400;7.608;2022-10-26T13:42:59;101537.16;;;19.41;71.26
73267;BME280;61495;53.400;7.608;2022-10-26T13:45:30;101534.69;;;19.39;70.56
73267;BME280;61495;53.400;7.608;2022-10-26T13:48:01;101533.03;;;19.38;70.72
73267;BME280;61495;53.400;7.608;2022-10-26T13:50:34;101511.53;;;19.20;69.58
73267;BME280;61495;53.400;7.608;2022-10-26T13:53:26;101524.13;;;19.26;70.55
73267;BME280;61495;53.400;7.608;2022-10-26T13:56:04;101541.28;;;19.44;71.05
73267;BME280;61495;53.400;7.608;2022-10-26T13:58:35;101503.38;;;19.20;72.01
73267;BME280;61495;53.400;7.608;2022-10-26T14:03:33;101516.13;;;19.20;70.21
73267;BME280;61495;53.400;7.608;2022-10-26T14:05:59;101528.72;;;19.26;71.95
73267;BME280;61495;53.400;7.608;2022-10-26T14:08:28;101523.44;;;19.19;70.47
73267;BME280;61495;53.400;7.608;2022-10-26T14:10:58;101547.09;;;19.35;70.10
73267;BME280;61495;53.400;7.608;2022-10-26T14:13:26;101547.00;;;19.30;71.89
73267;BME280;61495;53.400;7.608;2022-10-26T14:15:56;101559.59;;;19.36;70.75
73267;BME280;61495;53.400;7.608;2022-10-26T14:18:25;101530.69;;;19.14;71.39
73267;BME280;61495;53.400;7.608;2022-10-26T14:23:28;101538.69;;;19.20;69.64
73267;BME280;61495;53.400;7.608;2022-10-26T14:25:57;101517.44;;;19.01;69.99
73267;BME280;61495;53.400;7.608;2022-10-26T14:28:27;101537.13;;;19.24;71.75
73267;BME280;61495;53.400;7.608;2022-10-26T14:31:13;101541.91;;;19.17;70.57
73267;BME280;61495;53.400;7.608;2022-10-26T14:33:45;101526.88;;;18.81;70.05
73267;BME280;61495;53.400;7.608;2022-10-26T14:36:11;101578.13;;;19.06;71.13
73267;BME280;61495;53.400;7.608;2022-10-26T14:38:45;101557.13;;;19.02;72.07
73267;BME280;61495;53.400;7.608;2022-10-26T14:41:15;101533.22;;;18.70;71.43
73267;BME280;61495;53.400;7.608;2022-10-26T14:43:41;101562.13;;;18.93;72.06
73267;BME280;61495;53.400;7.608;2022-10-26T14:46:15;101581.34;;;19.03;70.41
73267;BME280;61495;53.400;7.608;2022-10-26T14:48:54;101583.22;;;19.03;71.22
73267;BME280;61495;53.400;7.608;2022-10-26T14:51:29;101592.56;;;18.95;70.83
73267;BME280;61495;53.400;7.608;2022-10-26T14:53:59;101592.00;;;18.93;72.32
73267;BME280;61495;53.400;7.608;2022-10-26T15:02:34;101600.53;;;18.85;71.70
73267;BME280;61495;53.400;7.608;2022-10-26T15:04:37;101587.94;;;18.79;73.31
73267;BME280;61495;53.400;7.608;2022-10-26T15:09:51;101579.84;;;18.67;72.60
73267;BME280;61495;53.400;7.608;2022-10-26T15:12:33;101593.63;;;18.66;73.15
73267;BME280;61495;53.400;7.608;2022-10-26T15:15:20;101566.19;;;18.39;73.13
73267;BME280;61495;53.400;7.608;2022-10-26T15:17:50;101617.50;;;18.64;73.30
73267;BME280;61495;53.400;7.608;2022-10-26T15:20:24;101594.25;;;18.45;73.23
73267;BME280;61495;53.400;7.608;2022-10-26T15:22:53;101618.94;;;18.55;73.71
73267;BME280;61495;53.400;7.608;2022-10-26T15:25:21;101590.66;;;18.27;73.86
73267;BME280;61495;53.400;7.608;2022-10-26T15:27:48;101617.09;;;18.32;73.72
73267;BME280;61495;53.400;7.608;2022-10-26T15:30:18;101588.66;;;18.11;72.98
73267;BME280;61495;53.400;7.608;2022-10-26T15:32:44;101624.25;;;18.26;73.86
73267;BME280;61495;53.400;7.608;2022-10-26T15:37:36;101637.72;;;18.21;74.86
73267;BME280;61495;53.400;7.608;2022-10-26T15:40:01;101638.09;;;18.13;74.57
73267;BME280;61495;53.400;7.608;2022-10-26T15:42:27;101654.72;;;18.17;75.14